createdAt,value
2018-08-07T00:01:56.250Z,3.30
2018-08-07T00:04:30.758Z,3.33
2018-08-07T00:07:05.714Z,3.08
2018-08-07T00:09:40.541Z,3.72
2018-08-07T00:12:15.600Z,3.37
2018-08-07T00:14:50.320Z,3.80
2018-08-07T00:17:24.826Z,3.20
2018-08-07T00:19:59.604Z,3.45
2018-08-07T00:22:34.333Z,2.67
2018-08-07T00:25:09.939Z,3.70
2018-08-07T00:27:44.851Z,3.33
2018-08-07T00:30:19.363Z,3.52
2018-08-07T00:32:53.950Z,3.50
2018-08-07T00:35:28.750Z,3.83
2018-08-07T00:38:03.469Z,3.10
2018-08-07T00:40:38.220Z,3.20
2018-08-07T00:43:12.906Z,3.70
2018-08-07T00:45:47.710Z,4.50
2018-08-07T00:48:22.580Z,5.35
2018-08-07T00:50:57.368Z,4.95
2018-08-07T00:53:32.105Z,4.78
2018-08-07T00:56:06.856Z,4.62
2018-08-07T00:58:41.564Z,4.35
2018-08-07T01:01:16.448Z,5.10
2018-08-07T01:03:51.159Z,4.10
2018-08-07T01:06:25.910Z,4.60
2018-08-07T01:09:00.460Z,4.15
2018-08-07T01:11:35.213Z,3.95
2018-08-07T01:14:09.922Z,4.10
2018-08-07T01:16:44.447Z,3.90
2018-08-07T01:19:18.962Z,3.98
2018-08-07T01:21:53.745Z,4.00
2018-08-07T01:24:28.174Z,3.83
2018-08-07T01:27:03.039Z,4.70
2018-08-07T01:29:37.712Z,4.62
2018-08-07T01:32:12.480Z,5.37
2018-08-07T01:34:47.197Z,4.47
2018-08-07T01:37:21.501Z,5.08
2018-08-07T01:39:56.159Z,4.92
2018-08-07T01:42:31.084Z,4.35
2018-08-07T01:45:06.146Z,4.67
2018-08-07T01:47:41.159Z,4.42
2018-08-07T01:50:16.303Z,6.65
2018-08-07T01:52:50.882Z,5.80
2018-08-07T01:55:27.156Z,6.35
2018-08-07T01:58:02.046Z,4.65
2018-08-07T02:00:36.602Z,4.40
2018-08-07T02:03:11.031Z,4.78
2018-08-07T02:05:45.865Z,5.20
2018-08-07T02:08:20.635Z,4.70
2018-08-07T02:10:55.341Z,5.17
2018-08-07T02:13:30.092Z,4.67
2018-08-07T02:16:04.710Z,4.70
2018-08-07T02:18:39.373Z,4.80
2018-08-07T02:21:13.924Z,4.62
2018-08-07T02:23:48.445Z,5.17
2018-08-07T02:26:23.272Z,4.22
2018-08-07T02:28:57.968Z,3.98
2018-08-07T02:31:32.489Z,4.90
2018-08-07T02:34:07.022Z,4.33
2018-08-07T02:36:41.745Z,4.50
2018-08-07T02:39:16.569Z,5.08
2018-08-07T02:41:51.132Z,5.00
2018-08-07T02:44:25.602Z,4.12
2018-08-07T02:47:00.418Z,4.90
2018-08-07T02:49:34.873Z,4.78
2018-08-07T02:52:09.622Z,5.25
2018-08-07T02:54:44.281Z,5.33
2018-08-07T02:57:19.034Z,7.20
2018-08-07T02:59:53.667Z,5.65
2018-08-07T03:02:28.440Z,5.45
2018-08-07T03:05:03.199Z,5.60
2018-08-07T03:07:37.985Z,4.95
2018-08-07T03:10:12.726Z,4.92
2018-08-07T03:12:47.373Z,4.65
2018-08-07T03:15:21.950Z,4.62
2018-08-07T03:17:56.450Z,5.00
2018-08-07T03:20:31.542Z,4.95
2018-08-07T03:23:06.412Z,6.33
2018-08-07T03:25:41.148Z,4.60
2018-08-07T03:28:15.788Z,4.58
2018-08-07T03:30:50.561Z,4.80
2018-08-07T03:33:25.216Z,5.50
2018-08-07T03:35:59.865Z,5.25
2018-08-07T03:38:34.377Z,5.03
2018-08-07T03:41:09.001Z,5.40
2018-08-07T03:43:43.451Z,5.37
2018-08-07T03:46:18.154Z,5.25
2018-08-07T03:48:53.011Z,5.33
2018-08-07T03:51:27.548Z,5.17
2018-08-07T03:54:02.221Z,4.65
2018-08-07T03:56:36.617Z,5.25
2018-08-07T03:59:11.365Z,4.87
2018-08-07T04:01:45.931Z,11.43
2018-08-07T04:04:20.563Z,6.58
2018-08-07T04:06:55.367Z,7.08
2018-08-07T04:09:29.910Z,6.75
2018-08-07T04:12:04.406Z,9.35
2018-08-07T04:14:39.191Z,5.55
2018-08-07T04:17:13.905Z,5.72
2018-08-07T04:19:48.583Z,5.58
2018-08-07T04:22:23.314Z,4.80
2018-08-07T04:24:58.044Z,5.08
2018-08-07T04:27:32.914Z,5.90
2018-08-07T04:30:10.324Z,4.55
2018-08-07T04:32:45.248Z,4.67
2018-08-07T04:35:19.972Z,4.67
2018-08-07T04:37:54.678Z,5.10
2018-08-07T04:40:29.011Z,5.42
2018-08-07T04:43:04.358Z,5.00
2018-08-07T04:45:39.275Z,5.85
2018-08-07T04:48:13.760Z,5.10
2018-08-07T04:50:48.427Z,5.25
2018-08-07T04:53:23.041Z,5.50
2018-08-07T04:55:57.782Z,5.33
2018-08-07T04:58:32.600Z,5.50
2018-08-07T05:01:07.526Z,5.72
2018-08-07T05:03:42.337Z,5.20
2018-08-07T05:06:17.112Z,6.05
2018-08-07T05:08:51.939Z,5.20
2018-08-07T05:11:26.771Z,6.83
2018-08-07T05:14:01.354Z,6.17
2018-08-07T05:16:36.148Z,5.58
2018-08-07T05:19:10.649Z,6.22
2018-08-07T05:21:45.410Z,5.00
2018-08-07T05:24:20.099Z,5.35
2018-08-07T05:26:55.145Z,5.78
2018-08-07T05:29:29.732Z,5.85
2018-08-07T05:32:04.382Z,5.20
2018-08-07T05:34:38.889Z,5.42
2018-08-07T05:37:13.544Z,6.33
2018-08-07T05:39:47.764Z,4.90
2018-08-07T05:42:22.465Z,5.30
2018-08-07T05:44:57.187Z,5.35
2018-08-07T05:47:31.856Z,5.00
2018-08-07T05:50:09.376Z,5.00
2018-08-07T05:52:44.086Z,5.72
2018-08-07T05:55:18.822Z,6.53
2018-08-07T05:57:53.338Z,6.10
2018-08-07T06:00:27.848Z,5.97
2018-08-07T06:03:02.646Z,4.35
2018-08-07T06:05:37.493Z,5.03
2018-08-07T06:08:12.067Z,4.70
2018-08-07T06:10:46.873Z,7.20
2018-08-07T06:13:21.506Z,8.28
2018-08-07T06:15:56.097Z,8.10
2018-08-07T06:18:30.757Z,5.80
2018-08-07T06:21:05.221Z,5.17
2018-08-07T06:23:39.967Z,4.08
2018-08-07T06:26:14.609Z,3.80
2018-08-07T06:28:49.312Z,4.60
2018-08-07T06:31:24.049Z,3.42
2018-08-07T06:33:58.815Z,3.65
2018-08-07T06:36:33.492Z,3.65
2018-08-07T06:39:08.803Z,3.60
2018-08-07T06:41:43.653Z,3.90
2018-08-07T06:44:18.417Z,3.45
2018-08-07T06:46:53.310Z,3.80
2018-08-07T06:49:28.048Z,3.65
2018-08-07T06:52:02.593Z,3.62
2018-08-07T06:54:37.211Z,3.65
2018-08-07T06:57:11.800Z,3.37
2018-08-07T06:59:46.461Z,3.52
2018-08-07T07:02:21.382Z,4.00
2018-08-07T07:04:56.267Z,4.00
2018-08-07T07:07:31.078Z,3.02
2018-08-07T07:10:06.305Z,3.37
2018-08-07T07:12:41.620Z,4.97
2018-08-07T07:15:16.680Z,5.05
2018-08-07T07:17:51.764Z,5.30
2018-08-07T07:20:26.572Z,4.00
2018-08-07T07:23:01.490Z,5.47
2018-08-07T07:25:36.099Z,2.65
2018-08-07T07:28:10.772Z,3.50
2018-08-07T07:30:45.319Z,3.30
2018-08-07T07:33:20.184Z,3.45
2018-08-07T07:35:54.989Z,2.77
2018-08-07T07:38:29.630Z,2.75
2018-08-07T07:41:04.147Z,2.80
2018-08-07T07:43:38.973Z,3.15
2018-08-07T07:46:14.380Z,3.20
2018-08-07T07:48:49.107Z,3.40
2018-08-07T07:51:23.911Z,2.90
2018-08-07T07:53:58.763Z,3.00
2018-08-07T07:56:33.351Z,2.80
2018-08-07T07:59:08.173Z,3.50
2018-08-07T08:01:42.725Z,2.90
2018-08-07T08:04:17.246Z,3.25
2018-08-07T08:06:52.087Z,3.50
2018-08-07T08:09:26.718Z,3.10
2018-08-07T08:12:01.432Z,3.62
2018-08-07T08:14:36.017Z,3.00
2018-08-07T08:17:10.520Z,3.90
2018-08-07T08:19:45.153Z,3.20
2018-08-07T08:22:19.593Z,3.08
2018-08-07T08:24:54.399Z,3.50
2018-08-07T08:27:29.014Z,4.22
2018-08-07T08:30:05.205Z,5.15
2018-08-07T08:32:39.873Z,5.17
2018-08-07T08:35:16.077Z,3.98
2018-08-07T08:37:51.004Z,4.17
2018-08-07T08:40:25.893Z,3.52
2018-08-07T08:43:00.800Z,3.55
2018-08-07T08:45:35.605Z,3.42
2018-08-07T08:48:10.543Z,3.40
2018-08-07T08:50:45.304Z,3.45
2018-08-07T08:53:20.281Z,3.40
2018-08-07T08:55:55.018Z,3.27
2018-08-07T08:58:29.852Z,2.95
2018-08-07T09:01:04.700Z,3.40
2018-08-07T09:03:39.450Z,3.85
2018-08-07T09:06:14.172Z,3.80
2018-08-07T09:08:49.189Z,3.12
2018-08-07T09:11:24.105Z,3.30
2018-08-07T09:13:58.834Z,3.30
2018-08-07T09:16:33.560Z,3.42
2018-08-07T09:19:08.342Z,3.30
2018-08-07T09:21:43.218Z,3.15
2018-08-07T09:24:18.019Z,2.87
2018-08-07T09:26:52.920Z,3.55
2018-08-07T09:29:27.245Z,2.90
2018-08-07T09:32:02.256Z,3.00
2018-08-07T09:34:36.999Z,3.45
2018-08-07T09:37:11.955Z,2.70
2018-08-07T09:39:46.701Z,3.92
2018-08-07T09:42:21.480Z,3.33
2018-08-07T09:44:56.331Z,4.07
2018-08-07T09:47:31.051Z,5.83
2018-08-07T09:50:06.536Z,6.05
2018-08-07T09:52:40.881Z,7.10
2018-08-07T09:55:16.029Z,4.80
2018-08-07T09:57:50.721Z,3.73
2018-08-07T10:00:30.947Z,3.58
2018-08-07T10:03:10.421Z,3.27
2018-08-07T10:05:45.248Z,3.37
2018-08-07T10:08:20.108Z,3.30
2018-08-07T10:10:54.748Z,3.40
2018-08-07T10:13:29.501Z,3.87
2018-08-07T10:16:04.575Z,3.73
2018-08-07T10:18:39.562Z,3.85
2018-08-07T10:21:14.381Z,3.90
2018-08-07T10:23:49.292Z,3.17
2018-08-07T10:26:24.196Z,3.62
2018-08-07T10:28:58.883Z,4.15
2018-08-07T10:31:33.950Z,3.60
2018-08-07T10:34:08.814Z,4.00
2018-08-07T10:36:43.728Z,3.30
2018-08-07T10:39:18.619Z,3.90
2018-08-07T10:41:53.347Z,3.90
2018-08-07T10:44:28.281Z,3.80
2018-08-07T10:47:02.918Z,5.62
2018-08-07T10:49:37.877Z,5.87
2018-08-07T10:52:12.645Z,6.58
2018-08-07T10:54:47.360Z,5.62
2018-08-07T10:57:21.937Z,5.25
2018-08-07T10:59:56.696Z,4.57
2018-08-07T11:02:31.611Z,3.50
2018-08-07T11:05:06.849Z,4.05
2018-08-07T11:07:41.887Z,3.50
2018-08-07T11:10:16.804Z,3.40
2018-08-07T11:12:51.692Z,3.50
2018-08-07T11:15:28.902Z,3.50
2018-08-07T11:18:04.014Z,3.80
2018-08-07T11:20:38.661Z,3.50
2018-08-07T11:23:13.344Z,3.47
2018-08-07T11:25:48.108Z,4.30
2018-08-07T11:28:22.665Z,4.03
2018-08-07T11:30:57.448Z,3.83
2018-08-07T11:33:32.321Z,3.87
2018-08-07T11:36:06.926Z,4.30
2018-08-07T11:38:41.655Z,4.67
2018-08-07T11:41:16.387Z,4.40
2018-08-07T11:43:50.895Z,4.28
2018-08-07T11:46:25.672Z,4.62
2018-08-07T11:49:00.226Z,4.27
2018-08-07T11:51:35.103Z,6.27
2018-08-07T11:54:09.712Z,6.73
2018-08-07T11:56:44.242Z,5.93
2018-08-07T11:59:20.092Z,5.30
2018-08-07T12:01:54.738Z,3.80
2018-08-07T12:04:29.575Z,3.53
2018-08-07T12:07:04.603Z,3.70
2018-08-07T12:09:39.164Z,3.77
2018-08-07T12:12:13.770Z,3.50
2018-08-07T12:14:48.429Z,3.80
2018-08-07T12:17:23.153Z,4.10
2018-08-07T12:19:57.851Z,3.83
2018-08-07T12:22:32.398Z,3.77
2018-08-07T12:25:08.154Z,3.93
2018-08-07T12:27:42.906Z,4.07
2018-08-07T12:30:21.506Z,3.83
2018-08-07T12:32:56.170Z,3.03
2018-08-07T12:35:30.810Z,3.23
2018-08-07T12:38:05.496Z,3.70
2018-08-07T12:40:40.065Z,3.97
2018-08-07T12:43:14.555Z,3.70
2018-08-07T12:45:49.095Z,3.40
2018-08-07T12:48:23.898Z,3.83
2018-08-07T12:50:58.620Z,3.57
2018-08-07T12:53:33.474Z,4.13
2018-08-07T12:56:08.377Z,4.53
2018-08-07T12:58:43.116Z,7.40
2018-08-07T13:01:17.598Z,3.63
2018-08-07T13:03:52.279Z,3.60
2018-08-07T13:06:26.982Z,4.10
2018-08-07T13:09:01.502Z,4.03
2018-08-07T13:11:36.065Z,3.60
2018-08-07T13:14:11.027Z,3.23
2018-08-07T13:16:45.738Z,3.70
2018-08-07T13:19:20.315Z,3.60
2018-08-07T13:21:54.994Z,3.67
2018-08-07T13:24:29.604Z,4.50
2018-08-07T13:27:04.227Z,4.10
2018-08-07T13:29:38.929Z,3.93
2018-08-07T13:32:13.464Z,4.12
2018-08-07T13:34:48.000Z,4.25
2018-08-07T13:37:22.796Z,3.90
2018-08-07T13:39:57.442Z,4.00
2018-08-07T13:42:32.014Z,4.00
2018-08-07T13:45:08.613Z,3.87
2018-08-07T13:47:43.342Z,3.12
2018-08-07T13:50:19.924Z,3.40
2018-08-07T13:52:54.661Z,3.75
2018-08-07T13:55:29.189Z,3.12
2018-08-07T13:58:04.023Z,3.40
2018-08-07T14:00:38.668Z,8.00
2018-08-07T14:03:13.206Z,7.83
2018-08-07T14:05:47.815Z,6.20
2018-08-07T14:08:22.518Z,4.55
2018-08-07T14:10:57.160Z,3.25
2018-08-07T14:13:31.748Z,3.10
2018-08-07T14:16:06.360Z,2.72
2018-08-07T14:18:40.829Z,4.00
2018-08-07T14:21:15.636Z,4.28
2018-08-07T14:23:50.332Z,3.60
2018-08-07T14:26:25.101Z,3.35
2018-08-07T14:28:59.764Z,4.22
2018-08-07T14:31:34.538Z,3.67
2018-08-07T14:34:09.202Z,3.70
2018-08-07T14:36:43.775Z,4.00
2018-08-07T14:39:18.235Z,3.83
2018-08-07T14:41:53.079Z,3.70
2018-08-07T14:44:27.650Z,4.70
2018-08-07T14:47:02.422Z,4.10
2018-08-07T14:49:37.019Z,4.33
2018-08-07T14:52:11.798Z,4.08
2018-08-07T14:54:46.177Z,3.75
2018-08-07T14:57:20.892Z,4.25
2018-08-07T14:59:55.701Z,3.62
2018-08-07T15:02:30.517Z,4.43
2018-08-07T15:05:05.621Z,3.70
2018-08-07T15:07:40.186Z,4.20
2018-08-07T15:10:17.001Z,5.65
2018-08-07T15:12:51.648Z,8.33
2018-08-07T15:15:31.273Z,7.85
2018-08-07T15:18:05.846Z,4.55
2018-08-07T15:20:40.627Z,4.10
2018-08-07T15:23:15.195Z,3.65
2018-08-07T15:25:49.944Z,4.05
2018-08-07T15:28:24.554Z,4.12
2018-08-07T15:30:59.175Z,3.98
2018-08-07T15:33:33.988Z,3.67
2018-08-07T15:36:08.575Z,4.00
2018-08-07T15:38:43.339Z,3.72
2018-08-07T15:41:17.970Z,4.20
2018-08-07T15:43:52.869Z,3.08
2018-08-07T15:46:27.454Z,3.90
2018-08-07T15:49:02.254Z,3.90
2018-08-07T15:51:37.082Z,4.72
2018-08-07T15:54:11.860Z,9.45
2018-08-07T15:56:46.706Z,10.68
2018-08-07T15:59:21.196Z,5.30
2018-08-07T16:01:55.799Z,5.80
2018-08-07T16:04:30.273Z,4.33
2018-08-07T16:07:04.941Z,3.75
2018-08-07T16:09:39.762Z,4.30
2018-08-07T16:12:14.240Z,4.20
2018-08-07T16:14:48.884Z,4.87
2018-08-07T16:17:23.498Z,4.47
2018-08-07T16:19:58.034Z,4.17
2018-08-07T16:22:32.516Z,4.33
2018-08-07T16:25:08.224Z,4.45
2018-08-07T16:27:43.891Z,4.47
2018-08-07T16:30:20.109Z,4.00
2018-08-07T16:32:54.724Z,3.92
2018-08-07T16:35:29.278Z,4.10
2018-08-07T16:38:03.778Z,4.10
2018-08-07T16:40:38.412Z,4.50
2018-08-07T16:43:12.953Z,4.50
2018-08-07T16:45:47.527Z,4.10
2018-08-07T16:48:22.049Z,4.35
2018-08-07T16:50:56.744Z,4.08
2018-08-07T16:53:31.308Z,3.90
2018-08-07T16:56:05.859Z,3.30
2018-08-07T16:58:40.492Z,4.10
2018-08-07T17:01:14.995Z,4.53
2018-08-07T17:03:49.603Z,4.87
2018-08-07T17:06:24.205Z,4.93
2018-08-07T17:08:58.899Z,4.13
2018-08-07T17:11:33.694Z,3.93
2018-08-07T17:14:08.299Z,3.33
2018-08-07T17:16:42.985Z,3.40
2018-08-07T17:19:17.675Z,4.00
2018-08-07T17:21:52.386Z,3.37
2018-08-07T17:24:26.942Z,3.90
2018-08-07T17:27:01.621Z,3.77
2018-08-07T17:29:36.460Z,3.23
2018-08-07T17:32:11.149Z,3.43
2018-08-07T17:34:45.621Z,3.70
2018-08-07T17:37:20.385Z,3.37
2018-08-07T17:39:55.285Z,3.90
2018-08-07T17:42:29.967Z,3.90
2018-08-07T17:45:05.493Z,3.43
2018-08-07T17:47:40.290Z,3.90
2018-08-07T17:50:23.295Z,4.00
2018-08-07T17:52:58.833Z,3.67
2018-08-07T17:55:33.433Z,3.97
2018-08-07T17:58:08.079Z,4.20
2018-08-07T18:00:42.737Z,7.63
2018-08-07T18:03:17.410Z,6.10
2018-08-07T18:05:52.174Z,5.20
2018-08-07T18:08:26.842Z,4.83
2018-08-07T18:11:01.489Z,4.20
2018-08-07T18:13:36.110Z,4.08
2018-08-07T18:16:10.927Z,3.85
2018-08-07T18:18:45.671Z,4.50
2018-08-07T18:21:20.331Z,5.33
2018-08-07T18:23:54.935Z,4.87
2018-08-07T18:26:29.643Z,4.65
2018-08-07T18:29:04.479Z,4.47
2018-08-07T18:31:39.258Z,4.75
2018-08-07T18:34:14.163Z,4.55
2018-08-07T18:37:16.120Z,4.97
2018-08-07T18:39:50.905Z,4.58
2018-08-07T18:42:25.500Z,3.62
2018-08-07T18:45:00.358Z,4.50
2018-08-07T18:47:35.141Z,5.53
2018-08-07T18:50:11.662Z,7.72
2018-08-07T18:52:46.416Z,8.63
2018-08-07T18:55:21.123Z,7.45
2018-08-07T18:57:55.883Z,5.80
2018-08-07T19:00:30.833Z,5.85
2018-08-07T19:03:05.612Z,5.00
2018-08-07T19:05:40.903Z,6.20
2018-08-07T19:08:15.561Z,5.22
2018-08-07T19:10:50.222Z,5.45
2018-08-07T19:13:24.871Z,5.05
2018-08-07T19:15:59.487Z,5.10
2018-08-07T19:18:34.234Z,5.92
2018-08-07T19:21:08.975Z,4.95
2018-08-07T19:23:43.556Z,5.90
2018-08-07T19:26:18.326Z,6.10
2018-08-07T19:28:52.829Z,5.40
2018-08-07T19:31:27.418Z,5.60
2018-08-07T19:34:01.948Z,5.80
2018-08-07T19:36:36.631Z,5.55
2018-08-07T19:39:13.119Z,6.03
2018-08-07T19:41:47.725Z,6.10
2018-08-07T19:44:22.579Z,5.95
2018-08-07T19:46:57.251Z,6.22
2018-08-07T19:49:31.978Z,6.50
2018-08-07T19:52:07.194Z,6.20
2018-08-07T19:54:41.752Z,6.80
2018-08-07T19:57:16.428Z,7.22
2018-08-07T19:59:50.820Z,8.38
2018-08-07T20:02:25.456Z,8.08
2018-08-07T20:05:00.015Z,7.20
2018-08-07T20:07:34.792Z,7.47
2018-08-07T20:10:10.767Z,6.37
2018-08-07T20:12:45.590Z,6.47
2018-08-07T20:15:22.784Z,6.05
2018-08-07T20:17:57.824Z,6.17
2018-08-07T20:20:32.243Z,6.55
2018-08-07T20:23:07.256Z,7.20
2018-08-07T20:25:41.915Z,6.45
2018-08-07T20:28:16.573Z,8.55
2018-08-07T20:30:51.266Z,8.20
2018-08-07T20:33:25.747Z,7.65
2018-08-07T20:36:00.388Z,7.40
2018-08-07T20:38:34.936Z,8.43
2018-08-07T20:44:12.808Z,8.63
2018-08-07T20:46:47.449Z,7.50
2018-08-07T20:49:22.218Z,8.05
2018-08-07T20:51:56.728Z,8.73
2018-08-07T20:54:37.681Z,7.90
2018-08-07T20:57:20.324Z,7.40
2018-08-07T20:59:55.505Z,8.08
2018-08-07T21:02:33.536Z,8.65
2018-08-07T21:05:08.004Z,6.87
2018-08-07T21:07:42.548Z,8.05
2018-08-07T21:10:19.589Z,8.90
2018-08-07T21:13:01.264Z,7.95
2018-08-07T21:15:36.007Z,8.78
2018-08-07T21:18:10.762Z,9.10
2018-08-07T21:20:45.592Z,8.55
2018-08-07T21:23:20.405Z,8.00
2018-08-07T21:25:55.074Z,7.67
2018-08-07T21:28:29.559Z,7.62
2018-08-07T21:31:04.339Z,6.95
2018-08-07T21:33:39.138Z,6.85
2018-08-07T21:36:13.520Z,8.08
2018-08-07T21:38:48.175Z,7.78
2018-08-07T21:41:23.148Z,6.28
2018-08-07T21:43:57.593Z,7.12
2018-08-07T21:46:33.217Z,7.83
2018-08-07T21:49:07.822Z,7.90
2018-08-07T21:51:42.477Z,8.33
2018-08-07T21:54:17.022Z,8.73
2018-08-07T21:56:51.656Z,6.92
2018-08-07T21:59:26.436Z,7.35
2018-08-07T22:02:00.948Z,8.10
2018-08-07T22:04:35.406Z,7.95
2018-08-07T22:07:10.131Z,7.95
2018-08-07T22:09:44.623Z,7.67
2018-08-07T22:12:19.160Z,7.05
2018-08-07T22:14:53.730Z,7.33
2018-08-07T22:17:28.527Z,7.50
2018-08-07T22:20:03.336Z,8.00
2018-08-07T22:22:38.097Z,8.33
2018-08-07T22:25:12.985Z,9.33
2018-08-07T22:27:47.398Z,8.73
2018-08-07T22:30:22.919Z,7.87
2018-08-07T22:32:57.437Z,9.20
2018-08-07T22:35:32.222Z,9.45
2018-08-07T22:38:06.767Z,8.15
2018-08-07T22:40:41.331Z,7.87
2018-08-07T22:43:16.017Z,8.65
2018-08-07T22:45:50.621Z,7.03
2018-08-07T22:48:25.353Z,7.40
2018-08-07T22:50:59.978Z,6.83
2018-08-07T22:53:34.737Z,7.55
2018-08-07T22:56:09.430Z,7.97
2018-08-07T22:58:44.062Z,6.75
2018-08-07T23:01:18.883Z,7.30
2018-08-07T23:03:53.542Z,6.80
2018-08-07T23:06:28.091Z,7.53
2018-08-07T23:09:02.814Z,6.97
2018-08-07T23:11:37.291Z,6.55
2018-08-07T23:14:11.935Z,7.10
2018-08-07T23:16:46.469Z,6.60
2018-08-07T23:19:21.186Z,6.83
2018-08-07T23:21:56.002Z,7.00
2018-08-07T23:24:30.867Z,7.85
2018-08-07T23:27:05.347Z,7.60
2018-08-07T23:29:39.711Z,8.03
2018-08-07T23:32:14.092Z,7.30
2018-08-07T23:34:48.762Z,7.25
2018-08-07T23:37:23.296Z,7.67
2018-08-07T23:39:57.961Z,8.03
2018-08-07T23:42:32.474Z,9.95
2018-08-07T23:45:08.384Z,10.20
2018-08-07T23:47:43.013Z,9.53
2018-08-07T23:50:17.624Z,9.23
2018-08-07T23:52:52.218Z,9.68
2018-08-07T23:55:27.051Z,7.50
2018-08-07T23:58:01.743Z,7.28
